MKJS/MBJ METAR and TAF weather

Enter ICAO airport designator
Station Type Date Time Source
MKJS METAR 2021/09/24 04:00 UTC NOAA

MKJS 240400Z VRB02KT 9999 FEW022 26/21 Q1013


Station Type Date Time Source
MKJS Decoded METAR 2021/09/24 04:00 UTC NOAA

Montego Bay / Sangster, Jamaica (MKJS) 18-30N 077-55W 8M
Sep 24, 2021 - 12:00 AM EDT / 2021.09.24 0400 UTC
Wind: Variable at 2 MPH (2 KT):0
Visibility: greater than 7 mile(s):0
Sky conditions: mostly clear
Temperature: 78 F (26 C)
Dew Point: 69 F (21 C)
Relative Humidity: 73%
Pressure (altimeter): 29.91 in. Hg (1013 hPa)
ob: MKJS 240400Z VRB02KT 9999 FEW022 26/21 Q1013
cycle: 4

Station Type Date Time Source
MKJS TAF 2021/09/23 18:30 UTC NOAA

TAF TAF MKJS 231715Z 2318/2418 07010KT 9999 FEW022
TEMPO 2319/2400 5000 TSRA BKN018 BKN020CB
BECMG 2402/2404 VRB02KT
BECMG 2416/2418 05010KT

Example: see airport list